Аэропорт: Храброво. Калининград

ICAO: UMKK

METAR:
2022-06-26 10:30:00
UMKK 261030Z 11004MPS 060V160 CAVOK 29/18 Q1019 R06/95D NOSIG RMK QFE763/1017
METAR:
2022-06-26 07:55:00
TAF UMKK 260755Z 2609/2709 12003G09MPS 9999 FEW040 TX30/2611Z TN19/2701Z TEMPO 2611/2621 09007MPS